createdAt,value
2023-03-06T00:01:48.649Z,1.10
2023-03-06T00:05:57.498Z,1.13
2023-03-06T00:10:03.487Z,1.20
2023-03-06T00:14:08.973Z,1.10
2023-03-06T00:18:15.352Z,1.00
2023-03-06T00:22:20.884Z,1.00
2023-03-06T00:26:26.489Z,0.90
2023-03-06T00:30:32.124Z,0.90
2023-03-06T00:34:37.945Z,0.90
2023-03-06T00:38:43.516Z,1.40
2023-03-06T00:42:49.409Z,1.00
2023-03-06T00:46:54.997Z,1.10
2023-03-06T00:51:01.255Z,1.03
2023-03-06T00:55:07.506Z,1.03
2023-03-06T00:59:12.959Z,1.13
2023-03-06T01:03:18.642Z,1.20
2023-03-06T01:07:24.347Z,1.30
2023-03-06T01:11:29.843Z,1.77
2023-03-06T01:15:35.526Z,1.30
2023-03-06T01:19:41.033Z,1.40
2023-03-06T01:23:47.458Z,1.50
2023-03-06T01:27:53.331Z,1.10
2023-03-06T01:31:58.891Z,1.10
2023-03-06T01:36:08.101Z,2.23
2023-03-06T01:40:14.161Z,1.40
2023-03-06T01:44:19.666Z,1.30
2023-03-06T01:48:25.360Z,1.30
2023-03-06T01:52:41.072Z,1.50
2023-03-06T01:56:51.778Z,1.27
2023-03-06T02:00:57.397Z,1.80
2023-03-06T02:05:06.798Z,1.00
2023-03-06T02:09:13.233Z,1.40
2023-03-06T02:13:18.721Z,1.60
2023-03-06T02:17:25.055Z,1.60
2023-03-06T02:21:36.711Z,1.03
2023-03-06T02:25:45.702Z,1.50
2023-03-06T02:29:51.190Z,1.60
2023-03-06T02:34:28.469Z,1.53
2023-03-06T02:38:47.841Z,1.40
2023-03-06T02:42:56.596Z,1.63
2023-03-06T02:47:02.217Z,1.57
2023-03-06T02:51:07.856Z,1.80
2023-03-06T02:55:13.577Z,1.50
2023-03-06T02:59:19.098Z,1.27
2023-03-06T03:03:24.716Z,1.10
2023-03-06T03:07:30.260Z,1.40
2023-03-06T03:11:35.991Z,1.10
2023-03-06T03:15:41.819Z,1.40
2023-03-06T03:19:47.302Z,1.60
2023-03-06T03:23:52.928Z,1.53
2023-03-06T03:27:58.436Z,2.27
2023-03-06T03:32:04.718Z,1.97
2023-03-06T03:36:10.718Z,2.40
2023-03-06T03:40:16.252Z,2.30
2023-03-06T03:44:21.950Z,2.60
2023-03-06T03:48:27.504Z,2.80
2023-03-06T03:52:33.347Z,2.40
2023-03-06T03:56:40.716Z,3.00
2023-03-06T04:00:47.167Z,3.00
2023-03-06T04:04:53.027Z,2.60
2023-03-06T04:08:58.908Z,2.60
2023-03-06T04:13:04.481Z,2.70
2023-03-06T04:17:10.185Z,2.97
2023-03-06T04:21:15.872Z,3.00
2023-03-06T04:25:21.339Z,3.10
2023-03-06T04:29:27.094Z,3.40
2023-03-06T04:33:32.858Z,3.17
2023-03-06T04:37:38.797Z,3.33
2023-03-06T04:41:44.353Z,4.00
2023-03-06T04:45:50.033Z,4.20
2023-03-06T04:49:55.647Z,4.20
2023-03-06T04:54:01.242Z,3.67
2023-03-06T04:58:06.839Z,5.13
2023-03-06T05:02:12.548Z,5.70
2023-03-06T05:06:18.203Z,5.17
2023-03-06T05:10:24.167Z,5.83
2023-03-06T05:14:30.961Z,4.80
2023-03-06T05:18:36.830Z,6.60
2023-03-06T05:22:42.570Z,5.97
2023-03-06T05:26:48.017Z,5.90
2023-03-06T05:30:53.488Z,7.10
2023-03-06T05:34:58.943Z,6.57
2023-03-06T05:39:04.456Z,6.90
2023-03-06T05:43:11.828Z,6.93
2023-03-06T05:47:17.378Z,7.20
2023-03-06T05:51:22.970Z,7.23
2023-03-06T05:55:28.584Z,7.80
2023-03-06T05:59:34.198Z,7.20
2023-03-06T06:03:39.881Z,7.50
2023-03-06T06:07:45.421Z,6.80
2023-03-06T06:11:54.917Z,8.33
2023-03-06T06:16:00.769Z,7.87
2023-03-06T06:20:07.118Z,9.03
2023-03-06T06:24:13.711Z,7.73
2023-03-06T06:28:19.214Z,7.57
2023-03-06T06:32:24.914Z,9.60
2023-03-06T06:36:30.596Z,8.50
2023-03-06T06:40:36.213Z,8.50
2023-03-06T06:44:41.795Z,8.70
2023-03-06T06:48:54.625Z,8.27
2023-03-06T06:53:00.136Z,8.37
2023-03-06T06:57:06.080Z,8.70
2023-03-06T07:01:13.673Z,9.37
2023-03-06T07:05:21.120Z,8.40
2023-03-06T07:09:27.617Z,7.30
2023-03-06T07:13:33.461Z,7.40
2023-03-06T07:17:38.996Z,7.73
2023-03-06T07:21:44.604Z,7.80
2023-03-06T07:25:50.878Z,6.20
2023-03-06T07:29:56.372Z,7.67
2023-03-06T07:34:04.803Z,6.37
2023-03-06T07:38:11.430Z,6.67
2023-03-06T07:42:16.972Z,6.30
2023-03-06T07:46:22.598Z,5.83
2023-03-06T07:50:28.487Z,5.10
2023-03-06T07:54:35.239Z,4.27
2023-03-06T07:58:44.256Z,4.23
2023-03-06T08:02:49.850Z,4.40
2023-03-06T08:06:57.552Z,4.20
2023-03-06T08:11:03.862Z,3.40
2023-03-06T08:15:11.715Z,3.60
2023-03-06T08:19:17.554Z,4.37
2023-03-06T08:23:23.076Z,4.10
2023-03-06T08:27:30.777Z,3.30
2023-03-06T08:31:43.381Z,3.53
2023-03-06T08:35:49.324Z,3.47
2023-03-06T08:39:54.825Z,2.73
2023-03-06T08:44:00.902Z,2.40
2023-03-06T08:48:06.854Z,2.80
2023-03-06T08:52:12.297Z,2.30
2023-03-06T08:56:23.347Z,2.33
2023-03-06T09:00:28.989Z,2.40
2023-03-06T09:04:35.177Z,2.03
2023-03-06T09:08:44.566Z,2.33
2023-03-06T09:12:53.141Z,2.23
2023-03-06T09:17:00.192Z,2.00
2023-03-06T09:21:07.105Z,2.97
2023-03-06T09:25:14.144Z,4.00
2023-03-06T09:29:19.681Z,2.27
2023-03-06T09:33:25.730Z,3.13
2023-03-06T09:37:31.305Z,4.73
2023-03-06T09:41:40.725Z,2.60
2023-03-06T09:45:46.349Z,2.20
2023-03-06T09:50:20.808Z,2.57
2023-03-06T09:55:05.942Z,2.33
2023-03-06T09:59:30.592Z,2.90
2023-03-06T10:04:10.089Z,3.07
2023-03-06T10:08:51.110Z,2.80
2023-03-06T10:13:18.300Z,2.43
2023-03-06T10:17:35.544Z,3.40
2023-03-06T10:21:49.107Z,2.37
2023-03-06T10:26:07.370Z,2.57
2023-03-06T10:30:40.585Z,2.77
2023-03-06T10:34:46.165Z,3.40
2023-03-06T10:38:51.901Z,3.50
2023-03-06T10:43:10.871Z,3.30
2023-03-06T10:47:37.643Z,2.50
2023-03-06T10:51:57.563Z,3.13
2023-03-06T10:56:04.292Z,2.70
2023-03-06T11:00:36.142Z,2.70
2023-03-06T11:04:47.915Z,1.70
2023-03-06T11:08:53.635Z,1.97
2023-03-06T11:13:07.635Z,2.07
2023-03-06T11:17:32.155Z,2.00
2023-03-06T11:21:39.951Z,1.90
2023-03-06T11:25:56.401Z,2.00
2023-03-06T11:30:44.465Z,2.23
2023-03-06T11:34:58.572Z,2.20
2023-03-06T11:39:34.468Z,2.20
2023-03-06T11:44:00.805Z,2.13
2023-03-06T11:48:15.899Z,1.43
2023-03-06T11:52:49.213Z,2.03
2023-03-06T11:57:20.217Z,1.80
2023-03-06T12:01:52.208Z,1.87
2023-03-06T12:06:40.845Z,1.93
2023-03-06T12:10:52.613Z,1.50
2023-03-06T12:15:24.107Z,1.60
2023-03-06T12:20:12.657Z,1.70
2023-03-06T13:34:42.757Z,2.03
2023-03-06T13:39:00.117Z,2.00
2023-03-06T13:43:19.598Z,1.93
2023-03-06T13:48:09.702Z,1.67
2023-03-06T13:52:43.745Z,1.77
2023-03-06T13:57:22.746Z,1.57
2023-03-06T14:02:03.037Z,1.77
2023-03-06T14:06:37.373Z,1.67
2023-03-06T14:10:46.503Z,1.70
2023-03-06T14:14:57.720Z,1.23
2023-03-06T14:19:04.164Z,1.27
2023-03-06T17:01:06.966Z,1.23
2023-03-06T17:05:12.980Z,1.40
2023-03-06T17:09:18.536Z,1.27
2023-03-06T17:13:24.272Z,1.20
2023-03-06T17:17:29.833Z,1.37
2023-03-06T17:21:37.238Z,1.17
2023-03-06T17:25:42.896Z,0.90
2023-03-06T17:29:48.910Z,1.70
2023-03-06T17:33:59.160Z,1.50
2023-03-06T17:38:04.782Z,1.80
2023-03-06T17:42:10.453Z,1.43
2023-03-06T17:46:18.114Z,1.63
2023-03-06T17:50:23.770Z,1.57
2023-03-06T17:54:30.153Z,1.43
2023-03-06T17:58:35.859Z,1.20
2023-03-06T18:02:41.430Z,1.50
2023-03-06T18:06:46.961Z,1.30
2023-03-06T18:10:52.406Z,1.40
2023-03-06T18:14:57.981Z,1.80
2023-03-06T18:19:03.469Z,1.53
2023-03-06T18:23:09.529Z,2.10
2023-03-06T18:27:15.116Z,2.20
2023-03-06T18:31:34.161Z,2.10
2023-03-06T18:35:40.761Z,1.90
2023-03-06T18:39:46.578Z,2.13
2023-03-06T18:43:54.527Z,2.17
2023-03-06T18:47:59.995Z,2.20
2023-03-06T18:52:05.835Z,1.83
2023-03-06T18:56:21.660Z,2.10
2023-03-06T19:00:27.164Z,2.30
2023-03-06T19:04:32.860Z,2.50
2023-03-06T19:08:40.384Z,2.40
2023-03-06T19:12:45.823Z,2.27
2023-03-06T19:16:51.345Z,1.90
2023-03-06T19:21:12.930Z,2.20
2023-03-06T19:25:19.235Z,1.90
2023-03-06T19:29:24.676Z,2.83
2023-03-06T19:33:30.152Z,2.43
2023-03-06T19:37:36.475Z,2.67
2023-03-06T19:41:41.916Z,3.10
2023-03-06T19:45:47.468Z,3.03
2023-03-06T19:49:53.010Z,2.90
2023-03-06T19:53:58.646Z,3.20
2023-03-06T19:58:04.532Z,3.53
2023-03-06T20:02:13.448Z,3.00
2023-03-06T20:06:20.264Z,2.63
2023-03-06T20:10:25.894Z,3.03
2023-03-06T20:14:31.348Z,2.70
2023-03-06T20:18:36.926Z,2.60
2023-03-06T20:22:42.542Z,3.20
2023-03-06T20:26:53.453Z,3.07
2023-03-06T20:30:59.348Z,2.70
2023-03-06T20:35:06.048Z,2.60
2023-03-06T20:39:16.214Z,2.93
2023-03-06T20:43:22.256Z,2.73
2023-03-06T20:47:27.988Z,2.67
2023-03-06T20:51:39.078Z,2.70
2023-03-06T20:55:45.543Z,2.70
2023-03-06T20:59:51.092Z,2.30
2023-03-06T21:03:58.368Z,2.30
2023-03-06T21:08:04.001Z,2.67
2023-03-06T21:12:09.724Z,2.27
2023-03-06T21:16:19.739Z,2.03
2023-03-06T21:20:25.274Z,2.90
2023-03-06T21:24:30.904Z,2.10
2023-03-06T21:28:36.340Z,2.70
2023-03-06T21:32:41.841Z,2.87
2023-03-06T21:36:47.378Z,3.00
2023-03-06T21:40:53.179Z,2.70
2023-03-06T21:44:59.863Z,2.47
2023-03-06T21:49:05.839Z,3.70
2023-03-06T21:53:11.442Z,3.03
2023-03-06T21:57:16.982Z,3.17
2023-03-06T22:01:27.148Z,3.03
2023-03-06T22:05:32.664Z,3.20
2023-03-06T22:09:38.533Z,3.30
2023-03-06T22:13:45.436Z,3.20
2023-03-06T22:17:51.070Z,2.93
2023-03-06T22:21:56.687Z,3.20
2023-03-06T22:26:04.810Z,2.77
2023-03-06T22:30:11.249Z,3.40
2023-03-06T22:34:16.979Z,2.60
2023-03-06T22:38:22.580Z,2.87
2023-03-06T22:42:28.708Z,2.67
2023-03-06T22:46:34.292Z,2.57
2023-03-06T22:50:39.727Z,2.30
2023-03-06T22:54:45.735Z,2.43
2023-03-06T22:58:52.000Z,2.33
2023-03-06T23:02:57.501Z,2.27
2023-03-06T23:07:04.182Z,2.37
2023-03-06T23:11:15.590Z,2.70
2023-03-06T23:15:21.222Z,2.20
2023-03-06T23:19:26.813Z,3.10
2023-03-06T23:23:32.469Z,2.60
2023-03-06T23:27:38.112Z,2.60
2023-03-06T23:31:43.555Z,2.67
2023-03-06T23:35:49.756Z,2.70
2023-03-06T23:39:55.218Z,2.30
2023-03-06T23:44:00.725Z,2.63
2023-03-06T23:48:07.898Z,2.40
2023-03-06T23:52:13.850Z,3.47
2023-03-06T23:56:19.309Z,2.93
